Time;durP1;ratioP1;P1;durP2;ratioP2;P2;SDS_P1;SDS_P2;PMS_P1;PMS_P2;Temp;Humidity;BMP_temperature;BMP_pressure;BME280_temperature;BME280_humidity;BME280_pressure;Samples;Min_cycle;Max_cycle;Signal;HPM_P1;HPM_P2
2022/07/18 00:03:40;;;;;;;4.57;3.90;;;12.00;99.90;;;;;;8322948;28;20033;-81
2022/07/18 00:07:40;;;;;;;6.90;4.00;;;12.00;99.90;;;;;;8307908;28;20574;-81
2022/07/18 00:11:41;;;;;;;4.68;3.90;;;11.70;99.90;;;;;;8293712;28;20022;-81
2022/07/18 00:15:41;;;;;;;5.75;4.40;;;11.80;99.90;;;;;;8318064;28;20032;-80
2022/07/18 00:19:42;;;;;;;7.15;3.88;;;12.00;99.90;;;;;;8295015;28;20073;-80
2022/07/18 00:23:42;;;;;;;7.65;3.90;;;12.10;99.90;;;;;;8319942;28;20036;-79
2022/07/18 00:27:43;;;;;;;8.07;3.92;;;12.10;99.90;;;;;;8310180;28;20648;-80
2022/07/18 00:31:44;;;;;;;8.02;3.75;;;12.40;99.90;;;;;;8301757;28;20489;-80
2022/07/18 00:35:44;;;;;;;8.07;3.85;;;12.10;99.90;;;;;;8315429;28;20489;-80
2022/07/18 00:39:45;;;;;;;6.18;4.22;;;11.90;99.90;;;;;;8325630;28;20034;-79
2022/07/18 00:43:45;;;;;;;6.43;3.42;;;11.90;99.90;;;;;;8308989;28;20026;-81
2022/07/18 00:47:46;;;;;;;3.88;3.38;;;11.70;99.90;;;;;;8301764;28;20085;-80
2022/07/18 00:51:47;;;;;;;6.07;3.60;;;11.70;99.90;;;;;;8311894;28;20119;-80
2022/07/18 00:55:47;;;;;;;4.32;3.35;;;11.80;99.90;;;;;;8311918;28;20034;-79
2022/07/18 01:04:10;;;;;;;6.57;3.83;;;11.70;99.90;;;;;;8312248;28;20062;-81
2022/07/18 01:08:11;;;;;;;7.55;3.45;;;11.50;99.90;;;;;;8315761;28;20413;-79
2022/07/18 01:12:12;;;;;;;4.10;3.40;;;11.40;99.90;;;;;;8319511;28;20033;-81
2022/07/18 01:16:15;;;;;;;7.95;4.20;;;11.30;99.90;;;;;;8311652;28;20021;-81
2022/07/18 01:20:16;;;;;;;6.63;4.18;;;11.40;99.90;;;;;;8307106;28;20414;-80
2022/07/18 01:24:16;;;;;;;6.13;3.70;;;11.20;99.90;;;;;;8312336;28;20021;-78
2022/07/18 01:28:18;;;;;;;6.50;4.18;;;11.30;99.90;;;;;;8310224;28;20024;-80
2022/07/18 01:32:19;;;;;;;4.70;3.97;;;11.50;99.90;;;;;;8310851;28;20068;-80
2022/07/18 01:36:20;;;;;;;4.93;3.83;;;11.30;99.90;;;;;;8301098;28;20029;-79
2022/07/18 01:40:21;;;;;;;4.65;3.53;;;11.20;99.90;;;;;;8333536;23;20140;-83
2022/07/18 01:44:23;;;;;;;5.22;3.80;;;11.20;99.90;;;;;;8291350;28;20018;-84
2022/07/18 01:48:24;;;;;;;4.85;3.80;;;11.20;99.90;;;;;;8296206;28;20021;-83
2022/07/18 01:52:25;;;;;;;5.57;3.90;;;11.10;99.90;;;;;;8296190;28;20024;-84
2022/07/18 01:56:25;;;;;;;4.75;3.72;;;10.90;99.90;;;;;;8290381;28;20030;-83
2022/07/18 02:00:26;;;;;;;5.43;3.50;;;10.60;99.90;;;;;;8294898;28;20030;-84
2022/07/18 02:08:46;;;;;;;7.20;3.83;;;10.70;99.90;;;;;;8296300;28;20028;-83
2022/07/18 02:12:47;;;;;;;7.82;3.92;;;11.00;99.90;;;;;;8293727;28;20113;-84
2022/07/18 02:16:47;;;;;;;5.75;3.88;;;10.90;99.90;;;;;;8296045;28;20030;-84
2022/07/18 02:20:48;;;;;;;8.68;4.20;;;10.90;99.90;;;;;;8289783;28;20486;-84
2022/07/18 02:24:48;;;;;;;4.10;3.65;;;10.80;99.90;;;;;;8295536;28;20032;-84
2022/07/18 02:28:49;;;;;;;8.05;4.50;;;10.50;99.90;;;;;;8296241;28;20072;-84
2022/07/18 02:32:49;;;;;;;5.65;4.05;;;10.20;99.90;;;;;;8295558;28;20117;-84
2022/07/18 02:36:50;;;;;;;8.40;4.35;;;10.30;99.90;;;;;;8290446;28;20108;-83
2022/07/18 02:40:51;;;;;;;5.32;4.32;;;10.20;99.90;;;;;;8296519;28;20038;-84
2022/07/18 02:44:52;;;;;;;5.45;3.97;;;10.30;99.90;;;;;;8297815;28;20030;-84
2022/07/18 02:48:52;;;;;;;5.30;4.05;;;10.40;99.90;;;;;;8296328;28;20160;-84
2022/07/18 02:52:53;;;;;;;5.90;4.53;;;10.20;99.90;;;;;;8291941;28;20022;-84
2022/07/18 02:56:54;;;;;;;8.95;4.18;;;10.10;99.90;;;;;;8294757;28;20033;-84
2022/07/18 03:00:55;;;;;;;5.22;4.05;;;10.00;99.90;;;;;;8294346;28;20117;-84
2022/07/18 03:04:55;;;;;;;7.13;4.30;;;9.90;99.90;;;;;;8288869;28;20029;-84
2022/07/18 03:08:56;;;;;;;5.55;4.50;;;9.90;99.90;;;;;;8285227;28;20026;-84
2022/07/18 03:12:56;;;;;;;7.57;5.63;;;9.60;99.90;;;;;;8292202;28;20026;-84
2022/07/18 03:16:57;;;;;;;5.72;4.70;;;9.80;99.90;;;;;;8293089;28;20026;-84
2022/07/18 03:20:58;;;;;;;4.75;4.15;;;9.90;99.90;;;;;;8292837;28;20026;-84
2022/07/18 03:24:58;;;;;;;7.38;4.70;;;9.80;99.90;;;;;;8295171;28;20478;-84
2022/07/18 03:28:59;;;;;;;6.45;4.82;;;9.70;99.90;;;;;;8283397;28;20022;-84
2022/07/18 03:33:00;;;;;;;10.23;4.60;;;9.60;99.90;;;;;;8292632;28;20026;-84
2022/07/18 03:37:00;;;;;;;7.07;4.38;;;9.50;99.90;;;;;;8294447;28;20037;-84
2022/07/18 03:41:03;;;;;;;7.53;4.60;;;9.50;99.90;;;;;;8266204;28;20061;-84
2022/07/18 03:45:05;;;;;;;5.05;4.55;;;9.30;99.90;;;;;;8294956;28;20072;-84
2022/07/18 03:49:06;;;;;;;6.07;4.85;;;9.30;99.90;;;;;;8296741;28;20053;-84
2022/07/18 03:53:06;;;;;;;9.02;5.18;;;9.40;99.90;;;;;;8297735;28;20030;-83
2022/07/18 03:57:07;;;;;;;6.45;4.50;;;9.50;99.90;;;;;;8297809;28;20022;-84
2022/07/18 04:01:09;;;;;;;8.20;4.47;;;9.70;99.90;;;;;;8298214;28;20033;-83
2022/07/18 04:05:10;;;;;;;5.90;4.25;;;10.00;99.90;;;;;;8299243;28;20028;-84
2022/07/18 04:09:11;;;;;;;6.70;4.28;;;10.50;99.90;;;;;;8296024;28;20026;-84
2022/07/18 04:13:12;;;;;;;7.53;4.75;;;11.20;99.90;;;;;;8298204;28;20034;-84
2022/07/18 04:17:12;;;;;;;9.23;4.15;;;11.80;99.90;;;;;;8296481;28;20525;-85
2022/07/18 04:21:13;;;;;;;8.88;4.18;;;12.20;99.90;;;;;;8285777;28;20435;-84
2022/07/18 04:25:14;;;;;;;5.25;3.80;;;12.90;99.90;;;;;;8298683;28;20014;-83
2022/07/18 04:29:14;;;;;;;3.97;3.55;;;13.90;99.90;;;;;;8293304;28;20029;-84
2022/07/18 04:33:15;;;;;;;4.25;3.33;;;14.00;99.90;;;;;;8295972;28;20117;-84
2022/07/18 04:37:16;;;;;;;5.32;3.67;;;14.30;99.90;;;;;;8296977;28;20026;-84
2022/07/18 04:41:19;;;;;;;4.45;4.05;;;13.90;99.90;;;;;;8297370;28;20037;-83
2022/07/18 04:45:23;;;;;;;4.40;3.80;;;14.10;99.90;;;;;;8297797;28;20083;-84
2022/07/18 04:49:24;;;;;;;6.95;4.10;;;14.20;99.90;;;;;;8298585;28;20075;-84
2022/07/18 04:53:54;;;;;;;5.10;3.80;;;14.50;99.90;;;;;;8296953;28;20033;-84
2022/07/18 04:57:55;;;;;;;4.72;3.72;;;15.30;99.90;;;;;;8288704;28;20028;-84
2022/07/18 05:01:56;;;;;;;4.75;3.65;;;15.90;99.90;;;;;;8296685;28;20026;-84
2022/07/18 05:05:56;;;;;;;5.53;3.90;;;16.70;99.90;;;;;;8292597;28;20033;-85
2022/07/18 05:09:57;;;;;;;6.40;3.70;;;17.30;99.90;;;;;;8304155;28;20030;-84
2022/07/18 05:13:58;;;;;;;5.43;3.83;;;17.70;99.90;;;;;;8291574;28;20096;-85
2022/07/18 05:17:58;;;;;;;4.68;3.85;;;17.70;99.90;;;;;;8296627;28;20075;-85
2022/07/18 05:21:59;;;;;;;7.20;4.07;;;18.10;99.90;;;;;;8293544;28;20475;-85
2022/07/18 05:25:59;;;;;;;5.82;3.83;;;18.80;99.90;;;;;;8294589;28;20494;-85
2022/07/18 05:30:01;;;;;;;4.97;3.28;;;19.50;99.90;;;;;;8294760;28;20037;-85
2022/07/18 05:34:02;;;;;;;4.80;3.70;;;20.00;99.90;;;;;;8295212;28;20064;-85
2022/07/18 05:38:02;;;;;;;4.82;3.65;;;20.30;99.90;;;;;;8296897;28;20490;-85
2022/07/18 05:42:03;;;;;;;3.80;3.50;;;20.80;99.90;;;;;;8295656;28;20066;-85
2022/07/18 05:46:05;;;;;;;5.35;3.60;;;21.60;99.90;;;;;;8296020;28;20022;-85
2022/07/18 05:50:06;;;;;;;4.78;3.63;;;21.90;99.90;;;;;;8295946;28;20029;-85
2022/07/18 05:54:07;;;;;;;4.43;3.92;;;22.00;99.90;;;;;;8296608;28;20080;-86
2022/07/18 05:58:08;;;;;;;4.95;3.85;;;22.90;99.90;;;;;;8296195;28;20022;-86
2022/07/18 06:02:08;;;;;;;7.25;3.90;;;23.00;99.90;;;;;;8293853;28;20034;-85
2022/07/18 06:06:09;;;;;;;6.88;5.10;;;22.70;99.90;;;;;;8291504;28;20032;-85
2022/07/18 06:10:10;;;;;;;7.68;4.88;;;23.10;99.90;;;;;;8295542;28;20026;-86
2022/07/18 06:14:11;;;;;;;5.32;4.78;;;23.80;99.40;;;;;;8296721;28;20518;-86
2022/07/18 06:18:11;;;;;;;5.97;3.63;;;24.00;99.70;;;;;;8296869;28;20037;-86
2022/07/18 06:22:14;;;;;;;10.32;4.88;;;24.50;97.30;;;;;;8294046;28;20030;-86
2022/07/18 06:26:15;;;;;;;7.32;4.43;;;25.20;98.00;;;;;;8298373;28;20060;-85
2022/07/18 06:30:15;;;;;;;5.30;4.00;;;25.30;95.10;;;;;;8298482;28;20032;-86
2022/07/18 06:34:16;;;;;;;7.25;3.95;;;25.00;94.90;;;;;;8296183;28;20546;-86
2022/07/18 06:38:17;;;;;;;5.63;3.92;;;26.00;92.50;;;;;;8292179;28;20033;-86
2022/07/18 06:42:18;;;;;;;5.07;3.50;;;25.70;91.80;;;;;;8297141;28;20022;-86
2022/07/18 06:46:19;;;;;;;4.95;3.15;;;25.70;90.40;;;;;;8296114;28;20018;-86
2022/07/18 06:50:20;;;;;;;3.78;3.42;;;26.20;88.90;;;;;;8290101;28;20080;-86
2022/07/18 06:54:30;;;;;;;4.63;3.60;;;26.60;91.40;;;;;;8295349;28;21026;-86
2022/07/18 06:58:42;;;;;;;4.88;3.20;;;27.20;87.30;;;;;;8296106;28;20037;-86
2022/07/18 07:02:49;;;;;;;3.65;3.35;;;27.40;83.50;;;;;;8291881;28;20107;-86
2022/07/18 07:06:52;;;;;;;3.63;3.08;;;27.50;88.40;;;;;;8295786;28;20049;-86
2022/07/18 07:10:53;;;;;;;6.85;3.00;;;27.60;80.40;;;;;;8294732;28;20085;-86
2022/07/18 07:14:54;;;;;;;4.25;3.08;;;27.60;82.50;;;;;;8295214;28;20431;-86
2022/07/18 07:18:54;;;;;;;5.90;3.30;;;28.10;82.70;;;;;;8292512;28;20390;-86
2022/07/18 07:22:57;;;;;;;3.38;2.85;;;27.90;77.20;;;;;;8294018;28;20030;-86
2022/07/18 07:26:57;;;;;;;4.60;2.90;;;28.30;81.10;;;;;;8298936;28;20030;-86
2022/07/18 07:30:58;;;;;;;3.95;3.20;;;28.40;75.70;;;;;;8300534;28;20049;-86
2022/07/18 07:34:59;;;;;;;7.47;3.03;;;28.60;79.10;;;;;;8301876;28;20083;-86
2022/07/18 07:39:06;;;;;;;5.18;3.00;;;28.80;75.60;;;;;;8299222;28;20030;-86
2022/07/18 07:43:12;;;;;;;4.57;3.20;;;29.40;74.60;;;;;;8295614;28;20034;-85
2022/07/18 07:47:12;;;;;;;6.63;3.00;;;29.40;71.40;;;;;;8298320;28;20026;-86
2022/07/18 07:51:16;;;;;;;5.50;3.03;;;29.30;71.90;;;;;;8300129;28;20439;-86
2022/07/18 07:55:17;;;;;;;3.10;2.80;;;29.80;73.70;;;;;;8300455;28;20029;-86
2022/07/18 07:59:17;;;;;;;3.63;2.70;;;30.30;69.20;;;;;;8299135;28;20030;-86
2022/07/18 08:03:18;;;;;;;6.30;2.95;;;29.70;70.30;;;;;;8298338;28;20553;-86
2022/07/18 08:07:20;;;;;;;3.60;2.78;;;29.90;72.00;;;;;;8297987;28;20376;-85
2022/07/18 08:11:21;;;;;;;5.95;2.97;;;29.70;67.80;;;;;;8299333;28;20030;-86
2022/07/18 08:15:21;;;;;;;3.55;3.00;;;29.80;69.20;;;;;;8300311;28;20624;-86
2022/07/18 08:19:22;;;;;;;4.80;3.00;;;30.00;65.10;;;;;;8300221;28;20603;-86
2022/07/18 08:23:23;;;;;;;4.10;2.80;;;30.40;65.70;;;;;;8297186;28;20022;-85
2022/07/18 08:27:23;;;;;;;3.83;2.40;;;30.20;62.80;;;;;;8298868;28;20022;-86
2022/07/18 08:31:25;;;;;;;3.67;2.40;;;30.60;61.00;;;;;;8290913;28;20030;-85
2022/07/18 08:35:26;;;;;;;6.40;2.63;;;30.60;59.10;;;;;;8295860;28;20497;-86
2022/07/18 08:39:27;;;;;;;2.10;1.70;;;30.10;63.30;;;;;;8296649;28;20022;-86
2022/07/18 08:43:28;;;;;;;1.73;1.52;;;30.80;55.60;;;;;;8298906;28;20505;-87
2022/07/18 08:47:29;;;;;;;2.60;1.83;;;31.30;49.00;;;;;;8294396;28;20049;-86
2022/07/18 08:51:30;;;;;;;4.13;2.13;;;31.10;52.80;;;;;;8297626;28;20030;-86
2022/07/18 08:55:34;;;;;;;2.47;1.90;;;31.50;51.40;;;;;;8298891;28;20053;-87
2022/07/18 08:59:34;;;;;;;2.45;1.60;;;31.70;51.00;;;;;;8294048;28;20045;-86
2022/07/18 09:03:35;;;;;;;2.83;1.75;;;31.30;47.60;;;;;;8296637;28;20028;-86
2022/07/18 09:07:36;;;;;;;2.25;1.80;;;31.40;45.90;;;;;;8297884;28;20478;-86
2022/07/18 09:11:37;;;;;;;2.40;1.50;;;31.70;49.40;;;;;;8298161;28;20022;-87
2022/07/18 09:16:11;;;;;;;2.75;1.60;;;31.80;46.80;;;;;;8297858;28;20080;-85
2022/07/18 09:20:16;;;;;;;2.88;1.60;;;31.40;48.90;;;;;;8296272;28;20152;-86
2022/07/18 09:24:17;;;;;;;2.35;1.70;;;31.70;48.40;;;;;;8298003;28;20026;-86
2022/07/18 09:28:18;;;;;;;2.17;1.98;;;31.40;47.80;;;;;;8297597;28;20502;-87
2022/07/18 09:32:22;;;;;;;2.97;1.70;;;31.60;50.50;;;;;;8298497;28;20032;-86
2022/07/18 09:36:23;;;;;;;2.65;1.98;;;31.90;49.30;;;;;;8297924;28;20033;-86
2022/07/18 09:40:30;;;;;;;1.85;1.63;;;31.80;51.90;;;;;;8291748;28;20029;-86
2022/07/18 09:44:30;;;;;;;2.65;1.40;;;32.00;48.90;;;;;;8302877;28;20025;-86
2022/07/18 09:48:31;;;;;;;3.35;1.55;;;31.80;47.60;;;;;;8292052;28;20022;-86
2022/07/18 09:52:35;;;;;;;2.38;1.52;;;31.90;45.40;;;;;;8298675;28;20076;-86
2022/07/18 09:56:39;;;;;;;3.47;1.80;;;31.90;44.30;;;;;;8297852;28;20029;-86
2022/07/18 10:00:43;;;;;;;2.67;1.75;;;31.70;44.60;;;;;;8297521;28;20026;-85
2022/07/18 10:04:47;;;;;;;3.92;1.52;;;31.30;46.30;;;;;;8303476;28;20021;-85
2022/07/18 10:08:48;;;;;;;1.88;1.70;;;30.80;46.70;;;;;;8297104;28;20072;-86
2022/07/18 10:13:23;;;;;;;3.38;1.55;;;30.90;49.80;;;;;;8293022;28;20030;-86
2022/07/18 10:17:24;;;;;;;2.72;1.80;;;31.30;44.70;;;;;;8302476;28;20033;-86
2022/07/18 10:21:41;;;;;;;2.85;1.73;;;31.30;45.00;;;;;;8298429;28;20050;-86
2022/07/18 10:25:42;;;;;;;2.50;1.60;;;31.20;44.40;;;;;;8300792;28;20377;-86
2022/07/18 10:30:19;;;;;;;2.33;1.70;;;31.60;44.90;;;;;;8297982;28;20034;-86
2022/07/18 10:34:33;;;;;;;3.55;1.52;;;32.20;48.40;;;;;;8290442;28;20026;-86
2022/07/18 10:43:33;;;;;;;4.38;1.55;;;32.40;45.10;;;;;;8282057;28;20098;-86
2022/07/18 10:47:34;;;;;;;2.65;1.67;;;33.00;43.80;;;;;;8290246;28;20033;-87
2022/07/18 10:51:44;;;;;;;2.95;1.52;;;33.30;41.20;;;;;;8286506;28;20026;-86
2022/07/18 10:55:47;;;;;;;1.58;1.45;;;32.90;44.10;;;;;;8289875;28;20022;-85
2022/07/18 11:00:08;;;;;;;1.70;1.60;;;33.20;42.50;;;;;;8286237;28;20108;-86
2022/07/18 11:04:30;;;;;;;1.70;1.60;;;33.60;42.50;;;;;;8290329;28;20487;-86
2022/07/18 11:08:33;;;;;;;1.67;1.50;;;34.20;41.40;;;;;;8298191;28;20482;-86
2022/07/18 11:12:36;;;;;;;2.58;1.50;;;34.20;43.70;;;;;;8298780;28;20026;-86
2022/07/18 11:17:19;;;;;;;2.88;1.60;;;34.40;40.60;;;;;;8299004;28;20061;-86
2022/07/18 11:21:23;;;;;;;2.45;1.50;;;34.60;37.80;;;;;;8292077;28;20125;-86
2022/07/18 11:25:28;;;;;;;1.92;1.50;;;34.60;39.40;;;;;;8300648;28;20114;-86
2022/07/18 11:29:47;;;;;;;2.08;1.50;;;34.70;41.10;;;;;;8297155;28;20046;-86
2022/07/18 11:33:49;;;;;;;2.47;1.38;;;34.80;39.20;;;;;;8305913;28;20041;-86
2022/07/18 11:37:51;;;;;;;2.58;1.50;;;34.90;39.70;;;;;;8305634;28;20053;-86
2022/07/18 11:52:33;;;;;;;1.65;1.30;;;36.10;37.30;;;;;;8204739;28;20108;-86
2022/07/18 11:57:11;;;;;;;2.67;1.60;;;35.00;39.30;;;;;;8205596;28;20027;-86
2022/07/18 12:01:13;;;;;;;1.98;1.35;;;36.30;38.60;;;;;;8178387;28;20041;-86
2022/07/18 12:10:17;;;;;;;2.03;1.52;;;37.40;33.70;;;;;;8294105;28;20081;-87
2022/07/18 12:14:18;;;;;;;1.30;1.20;;;38.80;37.00;;;;;;8298832;28;20025;-86
2022/07/18 12:18:50;;;;;;;3.67;1.30;;;39.10;31.80;;;;;;8299391;28;20029;-86
2022/07/18 12:27:46;;;;;;;1.35;1.25;;;39.20;32.30;;;;;;8230736;28;20610;-86
2022/07/18 12:31:47;;;;;;;2.45;1.27;;;39.80;32.00;;;;;;8287629;28;20113;-86
2022/07/18 12:36:01;;;;;;;1.67;1.42;;;39.60;32.30;;;;;;8306018;28;20073;-87
2022/07/18 12:40:15;;;;;;;2.03;1.60;;;40.80;32.30;;;;;;8295344;28;20481;-86
2022/07/18 12:44:16;;;;;;;2.30;1.35;;;39.30;34.50;;;;;;8292721;28;20022;-86
2022/07/18 12:48:17;;;;;;;2.20;1.48;;;37.90;33.00;;;;;;8289511;28;20026;-86
2022/07/18 12:52:32;;;;;;;1.88;1.40;;;38.00;35.60;;;;;;8294740;28;20475;-86
2022/07/18 12:56:36;;;;;;;3.05;1.60;;;37.30;35.50;;;;;;8301442;28;20057;-86
2022/07/18 13:00:44;;;;;;;1.58;1.48;;;37.00;36.60;;;;;;8303515;28;20684;-86
2022/07/18 13:05:15;;;;;;;3.67;1.60;;;38.60;36.10;;;;;;8290636;28;20480;-87
2022/07/18 13:09:51;;;;;;;2.85;1.50;;;40.00;31.60;;;;;;8300831;28;20109;-87
2022/07/18 13:13:51;;;;;;;4.88;1.83;;;41.50;30.00;;;;;;8295999;28;20076;-86
2022/07/18 13:17:52;;;;;;;2.00;1.60;;;41.60;29.70;;;;;;8296718;28;20587;-87
2022/07/18 13:21:52;;;;;;;2.13;1.20;;;41.10;33.40;;;;;;8295820;28;20407;-87
2022/07/18 13:26:04;;;;;;;2.00;1.33;;;42.20;28.90;;;;;;8294992;28;20022;-87
2022/07/18 13:30:08;;;;;;;1.70;1.30;;;42.10;28.60;;;;;;8294951;28;20027;-86
2022/07/18 13:34:09;;;;;;;2.40;1.58;;;41.20;30.20;;;;;;8296610;28;20041;-87
2022/07/18 13:38:35;;;;;;;1.60;1.50;;;41.30;29.10;;;;;;8302086;28;20030;-87
2022/07/18 13:42:37;;;;;;;3.10;1.50;;;40.50;31.40;;;;;;8175057;29;20035;-86
2022/07/18 13:46:40;;;;;;;3.22;1.30;;;38.60;33.70;;;;;;8185868;29;20032;-86
2022/07/18 13:56:18;;;;;;;1.50;1.40;;;39.70;30.00;;;;;;8186089;29;20452;-86
2022/07/18 14:00:52;;;;;;;1.60;1.40;;;39.80;31.80;;;;;;8255377;28;20041;-86
2022/07/18 14:05:29;;;;;;;3.83;1.50;;;39.50;32.40;;;;;;8300925;28;20606;-86
2022/07/18 14:09:30;;;;;;;2.25;1.40;;;40.70;30.80;;;;;;8287880;28;20029;-86
2022/07/18 14:13:30;;;;;;;8.02;1.67;;;41.70;28.70;;;;;;8293148;28;20120;-87
2022/07/18 14:17:58;;;;;;;2.13;1.60;;;41.90;31.90;;;;;;8300188;28;20033;-87
2022/07/18 14:22:24;;;;;;;3.35;1.65;;;42.40;28.10;;;;;;8299973;28;20487;-86
2022/07/18 14:26:40;;;;;;;5.35;1.55;;;41.10;29.80;;;;;;8215737;28;20085;-86
2022/07/18 14:30:41;;;;;;;2.92;1.70;;;39.40;32.00;;;;;;8194673;28;20094;-86
2022/07/18 14:34:47;;;;;;;3.65;1.50;;;39.30;31.80;;;;;;8206568;28;20023;-86
2022/07/18 14:43:44;;;;;;;2.10;1.48;;;40.90;30.50;;;;;;8214197;28;20114;-86
2022/07/18 14:48:18;;;;;;;2.10;1.45;;;39.70;32.50;;;;;;8206538;28;20030;-86
2022/07/18 14:52:40;;;;;;;1.67;1.40;;;39.30;32.60;;;;;;8202134;28;20488;-86
2022/07/18 14:57:16;;;;;;;4.65;1.58;;;38.50;32.80;;;;;;8245687;28;20037;-86
2022/07/18 15:01:51;;;;;;;4.07;1.30;;;38.90;32.00;;;;;;8298230;28;20034;-86
2022/07/18 15:06:29;;;;;;;3.97;1.80;;;38.30;33.00;;;;;;8296786;28;20037;-86
2022/07/18 15:11:13;;;;;;;1.60;1.50;;;38.00;33.50;;;;;;8291182;28;20517;-86
2022/07/18 15:15:14;;;;;;;3.15;1.60;;;38.00;34.90;;;;;;8298714;28;20120;-85
2022/07/18 15:19:15;;;;;;;3.22;1.70;;;36.40;34.60;;;;;;8289698;28;20444;-85
2022/07/18 15:23:16;;;;;;;2.45;1.58;;;35.80;35.80;;;;;;8300375;28;20022;-86
2022/07/18 15:37:21;;;;;;;1.80;1.70;;;36.80;33.70;;;;;;8285877;28;20084;-87
2022/07/18 15:41:24;;;;;;;3.90;1.80;;;37.40;33.30;;;;;;8298064;28;20049;-87
2022/07/18 15:45:42;;;;;;;3.38;1.63;;;38.40;30.40;;;;;;8293079;28;20026;-87
2022/07/18 15:54:54;;;;;;;3.63;1.52;;;33.80;41.50;;;;;;8206212;28;20595;-87
2022/07/18 15:59:13;;;;;;;2.58;1.55;;;32.60;39.70;;;;;;8078741;29;20067;-86
2022/07/18 16:03:19;;;;;;;6.07;1.88;;;31.50;44.00;;;;;;8058618;29;20128;-87
2022/07/18 16:08:02;;;;;;;3.17;2.00;;;31.20;41.20;;;;;;8071096;29;20025;-87
2022/07/18 16:12:24;;;;;;;4.10;1.88;;;31.10;41.80;;;;;;8096744;29;20123;-86
2022/07/18 16:16:43;;;;;;;2.13;1.83;;;31.10;45.10;;;;;;8149870;29;20046;-86
2022/07/18 16:21:27;;;;;;;3.70;1.77;;;30.80;43.10;;;;;;8161804;29;20039;-86
2022/07/18 16:25:43;;;;;;;;;;;;;;;;;;;;;
2022/07/18 16:30:07;;;;;;;5.18;1.95;;;30.40;44.60;;;;;;8235636;28;20112;-86
2022/07/18 16:34:11;;;;;;;6.75;1.92;;;30.80;42.00;;;;;;8291017;28;20089;-86
2022/07/18 16:39:03;;;;;;;3.60;1.92;;;32.00;43.20;;;;;;8303535;28;20026;-86
2022/07/18 16:43:42;;;;;;;4.20;1.80;;;32.40;45.10;;;;;;8295588;28;20029;-86
2022/07/18 16:48:17;;;;;;;2.35;1.80;;;31.70;44.40;;;;;;8297665;28;20033;-86
2022/07/18 16:52:22;;;;;;;2.92;1.92;;;31.50;43.20;;;;;;8303893;28;20495;-86
2022/07/18 16:56:28;;;;;;;4.80;1.60;;;31.40;45.20;;;;;;8298055;28;20099;-86
2022/07/18 17:00:39;;;;;;;4.60;1.90;;;30.90;43.10;;;;;;8296793;28;20037;-85
2022/07/18 17:04:50;;;;;;;3.92;1.80;;;30.10;45.90;;;;;;8305438;28;20026;-86
2022/07/18 17:08:56;;;;;;;4.00;1.80;;;29.50;49.20;;;;;;8304250;28;20026;-85
2022/07/18 17:13:31;;;;;;;4.07;1.73;;;29.10;47.60;;;;;;8305193;28;20499;-86
2022/07/18 17:18:00;;;;;;;4.25;1.90;;;28.70;51.10;;;;;;8239969;28;20068;-86
2022/07/18 17:22:10;;;;;;;1.77;1.67;;;28.30;49.70;;;;;;8291235;28;20045;-85
2022/07/18 17:26:18;;;;;;;2.47;1.73;;;28.20;50.60;;;;;;8286277;28;20030;-86
2022/07/18 17:35:28;;;;;;;2.92;1.85;;;27.90;49.20;;;;;;8289108;28;20036;-86
2022/07/18 17:44:36;;;;;;;2.92;1.67;;;27.20;53.50;;;;;;8287485;28;20100;-86
2022/07/18 17:48:38;;;;;;;4.55;1.90;;;27.00;55.70;;;;;;8286381;28;20586;-85
2022/07/18 17:52:39;;;;;;;4.20;1.83;;;26.80;53.50;;;;;;8297048;28;20044;-86
2022/07/18 17:56:55;;;;;;;4.55;1.70;;;26.70;54.70;;;;;;8295225;28;20057;-86
2022/07/18 18:00:56;;;;;;;2.05;1.60;;;26.60;52.60;;;;;;8292583;28;20495;-86
2022/07/18 18:04:57;;;;;;;5.07;1.90;;;26.10;56.90;;;;;;8300848;28;20486;-86
2022/07/18 18:09:08;;;;;;;3.15;1.75;;;25.80;58.20;;;;;;8298386;28;20028;-86
2022/07/18 18:13:31;;;;;;;10.05;2.05;;;25.50;58.30;;;;;;8287847;28;20030;-86
2022/07/18 18:17:41;;;;;;;12.50;2.08;;;25.20;57.50;;;;;;8280794;28;20585;-86
2022/07/18 18:21:42;;;;;;;8.13;1.90;;;25.10;59.70;;;;;;8291247;28;20025;-86
2022/07/18 18:25:43;;;;;;;3.90;1.67;;;24.70;60.30;;;;;;8301284;28;20080;-86
2022/07/18 18:29:51;;;;;;;2.90;1.92;;;24.50;60.30;;;;;;8295792;28;20037;-86
2022/07/18 18:34:04;;;;;;;18.92;2.10;;;24.40;61.00;;;;;;8284207;28;20035;-86
2022/07/18 18:38:06;;;;;;;2.85;1.90;;;24.40;60.20;;;;;;8284921;28;20032;-86
2022/07/18 18:42:27;;;;;;;5.32;1.90;;;24.20;61.30;;;;;;8285658;28;20034;-86
2022/07/18 18:46:40;;;;;;;5.22;2.20;;;24.00;62.20;;;;;;8290257;28;20031;-86
2022/07/18 18:51:10;;;;;;;2.15;1.70;;;23.70;62.40;;;;;;8288179;28;20030;-86
2022/07/18 18:55:44;;;;;;;8.77;1.90;;;23.80;61.70;;;;;;8266668;28;20030;-86
2022/07/18 19:00:05;;;;;;;3.05;1.85;;;23.90;62.30;;;;;;8285918;28;20045;-85
2022/07/18 19:04:12;;;;;;;;;;;23.60;64.30;;;;;;8275088;28;20029;-86
2022/07/18 19:08:16;;;;;;;4.38;1.95;;;23.30;66.50;;;;;;8280610;28;19910;-86
2022/07/18 19:12:54;;;;;;;3.38;1.95;;;23.00;67.60;;;;;;8296516;28;20022;-86
2022/07/18 19:16:56;;;;;;;4.78;2.00;;;22.90;68.90;;;;;;8306582;28;20028;-85
2022/07/18 19:21:07;;;;;;;8.02;1.90;;;22.60;70.60;;;;;;8297641;28;20030;-86
2022/07/18 19:25:26;;;;;;;6.00;1.98;;;22.40;73.00;;;;;;8291724;28;20030;-85
2022/07/18 19:29:30;;;;;;;4.43;2.07;;;22.20;75.60;;;;;;8296869;28;20041;-85
2022/07/18 19:33:32;;;;;;;2.53;2.22;;;22.10;75.20;;;;;;8305944;28;20482;-86
2022/07/18 19:37:33;;;;;;;4.20;2.10;;;22.00;74.50;;;;;;8306219;28;20021;-86
2022/07/18 19:41:33;;;;;;;5.72;2.40;;;21.60;77.60;;;;;;8293321;28;20585;-86
2022/07/18 19:45:34;;;;;;;3.33;1.90;;;21.30;80.60;;;;;;8296621;28;20049;-86
2022/07/18 19:49:35;;;;;;;2.78;1.88;;;21.10;82.40;;;;;;8303528;28;20029;-85
2022/07/18 19:53:36;;;;;;;6.90;2.10;;;21.00;84.50;;;;;;8298479;28;20038;-86
2022/07/18 19:57:37;;;;;;;3.50;2.00;;;20.90;84.50;;;;;;8300302;28;20029;-86
2022/07/18 20:01:38;;;;;;;5.40;1.90;;;20.60;85.30;;;;;;8301931;28;20160;-86
2022/07/18 20:05:38;;;;;;;4.05;2.28;;;20.40;86.70;;;;;;8294206;28;20041;-86
2022/07/18 20:09:39;;;;;;;8.77;2.50;;;20.20;90.00;;;;;;8296775;28;20038;-86
2022/07/18 20:13:43;;;;;;;4.63;2.30;;;20.20;91.10;;;;;;8301658;28;20558;-86
2022/07/18 20:17:47;;;;;;;6.00;2.38;;;20.20;90.70;;;;;;8305379;28;20033;-86
2022/07/18 20:21:59;;;;;;;4.50;2.30;;;19.90;91.40;;;;;;8296386;28;20036;-86
2022/07/18 20:26:19;;;;;;;2.70;2.22;;;19.70;92.00;;;;;;8290864;28;20026;-86
2022/07/18 20:30:49;;;;;;;6.70;2.25;;;19.60;92.80;;;;;;8304139;28;20034;-86
2022/07/18 20:34:50;;;;;;;4.05;2.15;;;19.50;94.10;;;;;;8295485;28;20069;-86
2022/07/18 20:38:50;;;;;;;4.65;2.25;;;19.20;95.90;;;;;;8293953;28;20034;-85
2022/07/18 20:43:12;;;;;;;3.45;2.13;;;19.20;96.30;;;;;;8300389;28;20459;-86
2022/07/18 20:47:13;;;;;;;2.47;2.22;;;19.00;97.10;;;;;;8302106;28;20037;-86
2022/07/18 20:51:17;;;;;;;4.13;2.58;;;18.80;97.90;;;;;;8308736;28;20023;-85
2022/07/18 20:59:49;;;;;;;6.47;2.80;;;18.90;99.90;;;;;;8302896;28;20109;-86
2022/07/18 21:03:59;;;;;;;4.55;2.72;;;18.80;99.90;;;;;;8308433;28;20056;-86
2022/07/18 21:08:23;;;;;;;8.45;2.63;;;18.40;99.90;;;;;;8296040;28;20034;-86
2022/07/18 21:12:24;;;;;;;6.47;2.60;;;18.10;99.90;;;;;;8297568;28;20101;-86
2022/07/18 21:17:09;;;;;;;6.55;2.58;;;18.00;99.90;;;;;;8297427;28;20026;-86
2022/07/18 21:21:10;;;;;;;3.47;2.60;;;17.80;99.90;;;;;;8270241;28;20030;-86
2022/07/18 21:25:18;;;;;;;5.00;3.10;;;17.70;99.90;;;;;;8295332;28;20044;-86
2022/07/18 21:30:14;;;;;;;6.70;2.50;;;17.50;99.90;;;;;;8297326;28;20033;-86
2022/07/18 21:34:21;;;;;;;5.82;2.60;;;17.40;99.90;;;;;;8293788;28;20030;-86
2022/07/18 21:38:27;;;;;;;5.20;2.60;;;17.30;99.90;;;;;;8297680;28;20026;-85
2022/07/18 21:42:37;;;;;;;5.28;3.03;;;17.30;99.90;;;;;;8298439;28;20112;-85
2022/07/18 21:46:37;;;;;;;5.28;2.63;;;17.20;99.90;;;;;;8299121;28;20053;-85
2022/07/18 21:50:40;;;;;;;6.72;2.95;;;17.20;99.90;;;;;;8296670;28;20034;-85
2022/07/18 21:55:08;;;;;;;5.85;2.40;;;17.20;99.90;;;;;;8296161;28;20026;-86
2022/07/18 21:59:15;;;;;;;6.15;2.47;;;16.90;99.90;;;;;;8150229;29;20036;-86
2022/07/18 22:03:54;;;;;;;8.82;2.60;;;16.80;99.90;;;;;;8266675;28;20026;-86
2022/07/18 22:08:07;;;;;;;4.43;2.40;;;16.70;99.90;;;;;;8293565;28;20487;-86
2022/07/18 22:12:08;;;;;;;4.53;2.67;;;16.60;99.90;;;;;;8271686;28;20026;-86
2022/07/18 22:21:27;;;;;;;4.15;2.83;;;16.50;99.90;;;;;;8209634;28;20492;-86
2022/07/18 22:25:59;;;;;;;4.03;2.42;;;16.30;99.90;;;;;;8263468;28;20058;-86
2022/07/18 22:30:01;;;;;;;5.63;2.70;;;16.40;99.90;;;;;;8295412;28;20060;-86
2022/07/18 22:34:08;;;;;;;6.25;2.60;;;16.40;99.90;;;;;;8294882;28;20029;-85
2022/07/18 22:38:10;;;;;;;4.95;2.53;;;16.40;99.90;;;;;;8293570;28;20431;-85
2022/07/18 22:42:32;;;;;;;3.90;2.88;;;16.30;99.90;;;;;;8295739;28;20030;-85
2022/07/18 22:46:40;;;;;;;4.28;2.75;;;16.20;99.90;;;;;;8299811;28;20053;-86
2022/07/18 22:51:21;;;;;;;6.35;2.47;;;16.20;99.90;;;;;;8292290;28;20076;-86